Time;durP1;ratioP1;P1;durP2;ratioP2;P2;SDS_P1;SDS_P2;PMS_P1;PMS_P2;Temp;Humidity;BMP_temperature;BMP_pressure;BME280_temperature;BME280_humidity;BME280_pressure;Samples;Min_cycle;Max_cycle;Signal;HPM_P1;HPM_P2
2022/03/09 00:00:10;;;;;;;;;;;;;;;21.69;33.05;95055.53;1987813;29;1501;-79
2022/03/09 00:01:12;;;;;;;;;;;;;;;21.71;33.14;95053.44;1988408;29;1724;-80
2022/03/09 00:02:14;;;;;;;;;;;;;;;21.74;33.17;95053.06;1996278;29;1473;-80
2022/03/09 00:03:15;;;;;;;;;;;;;;;21.81;33.18;95054.88;1995828;29;843;-79
2022/03/09 00:04:17;;;;;;;;;;;;;;;21.78;33.32;95056.13;1995543;29;1524;-79
2022/03/09 00:05:19;;;;;;;;;;;;;;;21.75;33.28;95046.69;1987974;29;1555;-80
2022/03/09 00:06:20;;;;;;;;;;;;;;;21.77;33.42;95051.78;1987383;29;1517;-81
2022/03/09 00:07:22;;;;;;;;;;;;;;;21.82;33.32;95049.31;1989418;29;971;-81
2022/03/09 00:08:24;;;;;;;;;;;;;;;21.90;33.34;95050.94;1988831;29;1989;-81
2022/03/09 00:09:28;;;;;;;;;;;;;;;21.90;33.10;95046.41;1989321;29;1526;-83
2022/03/09 00:10:37;;;;;;;;;;;;;;;21.87;33.36;95052.16;1984378;29;1712;-80
2022/03/09 00:11:39;;;;;;;;;;;;;;;21.86;33.27;95052.38;1989611;29;1542;-80
2022/03/09 00:12:41;;;;;;;;;;;;;;;21.84;33.57;95049.94;1996444;29;1544;-81
2022/03/09 00:13:43;;;;;;;;;;;;;;;21.83;33.55;95052.78;1988593;29;1019;-80
2022/03/09 00:14:44;;;;;;;;;;;;;;;21.81;33.62;95052.22;1989227;29;1022;-81
2022/03/09 00:15:46;;;;;;;;;;;;;;;21.81;33.45;95052.22;1987944;29;1621;-80
2022/03/09 00:16:48;;;;;;;;;;;;;;;21.78;33.85;95056.94;1988408;29;1696;-81
2022/03/09 00:17:49;;;;;;;;;;;;;;;21.82;33.58;95051.16;1989322;29;1485;-80
2022/03/09 00:18:51;;;;;;;;;;;;;;;21.81;33.72;95047.69;1995410;29;1621;-81
2022/03/09 00:19:52;;;;;;;;;;;;;;;21.81;33.83;95053.03;1996491;29;1079;-81
2022/03/09 00:20:54;;;;;;;;;;;;;;;21.77;34.06;95055.31;1988056;29;1502;-81
2022/03/09 00:21:56;;;;;;;;;;;;;;;21.79;33.92;95055.06;1984805;29;1235;-81
2022/03/09 00:22:57;;;;;;;;;;;;;;;21.77;33.89;95047.28;1988923;29;1657;-81
2022/03/09 00:23:59;;;;;;;;;;;;;;;21.78;33.91;95053.44;1995991;29;1547;-81
2022/03/09 00:25:03;;;;;;;;;;;;;;;21.74;34.09;95049.53;1995854;29;1646;-80
2022/03/09 00:26:05;;;;;;;;;;;;;;;21.77;33.93;95049.13;1995434;29;1301;-80
2022/03/09 00:27:07;;;;;;;;;;;;;;;21.79;34.02;95058.56;1995659;29;1046;-80
2022/03/09 00:28:09;;;;;;;;;;;;;;;21.78;34.16;95054.25;1989247;29;2002;-81
2022/03/09 00:29:11;;;;;;;;;;;;;;;21.79;34.28;95053.22;1995940;29;1552;-80
2022/03/09 00:30:13;;;;;;;;;;;;;;;21.81;34.23;95052.22;1989144;29;1661;-80
2022/03/09 00:31:14;;;;;;;;;;;;;;;21.87;34.29;95046.81;1980751;29;1695;-80
2022/03/09 00:32:16;;;;;;;;;;;;;;;21.87;34.11;95048.69;1984963;29;1858;-80
2022/03/09 00:33:18;;;;;;;;;;;;;;;21.85;34.34;95048.06;1981731;29;1543;-80
2022/03/09 00:34:20;;;;;;;;;;;;;;;21.88;34.17;95042.31;1980917;29;1176;-80
2022/03/09 00:35:21;;;;;;;;;;;;;;;21.84;34.27;95049.13;1996964;29;1648;-80
2022/03/09 00:36:23;;;;;;;;;;;;;;;21.91;34.26;95041.88;1995581;29;1417;-79
2022/03/09 00:37:25;;;;;;;;;;;;;;;21.95;34.48;95037.75;1988187;29;1728;-79
2022/03/09 00:38:26;;;;;;;;;;;;;;;21.92;34.33;95039.00;1988381;29;1660;-79
2022/03/09 00:39:28;;;;;;;;;;;;;;;21.88;34.81;95037.78;1988011;29;1553;-79
2022/03/09 00:40:30;;;;;;;;;;;;;;;21.90;34.43;95034.91;1988241;29;1805;-79
2022/03/09 00:41:31;;;;;;;;;;;;;;;21.85;34.89;95032.84;1987893;29;1694;-79
2022/03/09 00:42:37;;;;;;;;;;;;;;;21.90;34.51;95041.06;1988050;29;1727;-79
2022/03/09 00:43:39;;;;;;;;;;;;;;;21.89;34.66;95046.63;1985403;29;1035;-78
2022/03/09 00:44:40;;;;;;;;;;;;;;;21.90;34.67;95037.56;1980326;29;1693;-79
2022/03/09 00:45:42;;;;;;;;;;;;;;;21.90;34.66;95045.59;1988275;29;1672;-79
2022/03/09 00:46:44;;;;;;;;;;;;;;;21.94;34.77;95041.44;1988171;29;1541;-79
2022/03/09 00:47:46;;;;;;;;;;;;;;;21.98;34.69;95037.34;1995475;29;1025;-78
2022/03/09 00:48:47;;;;;;;;;;;;;;;21.99;34.73;95031.75;1987833;29;1900;-79
2022/03/09 00:49:49;;;;;;;;;;;;;;;22.02;34.49;95043.88;1988094;29;1093;-79
2022/03/09 00:50:51;;;;;;;;;;;;;;;22.00;34.91;95036.09;1980883;29;1566;-79
2022/03/09 00:51:53;;;;;;;;;;;;;;;21.97;34.79;95030.34;1980839;29;1090;-79
2022/03/09 00:52:54;;;;;;;;;;;;;;;21.92;34.86;95036.34;1980217;29;1562;-79
2022/03/09 00:53:56;;;;;;;;;;;;;;;21.93;34.98;95031.81;1988239;29;1271;-79
2022/03/09 00:54:57;;;;;;;;;;;;;;;21.89;35.01;95027.94;1992153;29;1470;-78
2022/03/09 00:55:59;;;;;;;;;;;;;;;21.86;35.30;95028.34;1996162;29;1560;-79
2022/03/09 00:57:01;;;;;;;;;;;;;;;21.87;35.07;95024.66;1995182;29;1527;-79
2022/03/09 00:58:03;;;;;;;;;;;;;;;21.88;35.11;95031.63;1988164;29;1493;-79
2022/03/09 00:59:05;;;;;;;;;;;;;;;21.87;35.13;95030.00;1982067;29;1764;-78
2022/03/09 01:00:07;;;;;;;;;;;;;;;21.88;35.19;95026.28;1980861;29;1495;-79
2022/03/09 01:01:10;;;;;;;;;;;;;;;21.97;35.24;95031.19;1997146;29;1738;-78
2022/03/09 01:02:14;;;;;;;;;;;;;;;22.04;35.09;95027.66;1994928;29;1042;-80
2022/03/09 01:03:16;;;;;;;;;;;;;;;21.99;35.20;95030.94;1981067;29;1660;-79
2022/03/09 01:04:18;;;;;;;;;;;;;;;21.97;35.31;95025.00;1982451;29;1564;-80
2022/03/09 01:05:20;;;;;;;;;;;;;;;22.00;35.11;95032.59;1977559;29;1526;-78
2022/03/09 01:06:21;;;;;;;;;;;;;;;22.01;35.35;95021.69;1989540;29;1002;-79
2022/03/09 01:07:23;;;;;;;;;;;;;;;21.99;35.19;95025.59;1988261;29;1568;-80
2022/03/09 01:08:25;;;;;;;;;;;;;;;21.95;35.38;95025.22;1987900;29;1907;-79
2022/03/09 01:09:26;;;;;;;;;;;;;;;21.91;35.45;95024.00;1988874;29;1509;-80
2022/03/09 01:10:28;;;;;;;;;;;;;;;21.95;35.58;95019.06;1987748;29;1546;-80
2022/03/09 01:11:30;;;;;;;;;;;;;;;21.90;35.70;95017.03;1989708;29;1616;-81
2022/03/09 01:12:31;;;;;;;;;;;;;;;21.94;35.61;95017.41;1989598;29;1506;-81
2022/03/09 01:13:34;;;;;;;;;;;;;;;21.90;35.76;95016.22;1989578;29;1569;-81
2022/03/09 01:14:35;;;;;;;;;;;;;;;21.89;35.85;95019.91;1990425;29;1635;-81
2022/03/09 01:15:37;;;;;;;;;;;;;;;21.85;35.70;95022.19;1982230;29;1526;-80
2022/03/09 01:16:38;;;;;;;;;;;;;;;21.87;35.79;95021.97;1987246;29;1096;-81
2022/03/09 01:17:40;;;;;;;;;;;;;;;21.89;35.96;95019.91;1989282;29;1309;-80
2022/03/09 01:18:42;;;;;;;;;;;;;;;21.88;35.98;95013.75;1989554;29;1526;-80
2022/03/09 01:19:43;;;;;;;;;;;;;;;21.84;36.12;95012.53;1990332;29;1501;-80
2022/03/09 01:20:45;;;;;;;;;;;;;;;21.84;35.97;95014.41;1988743;29;1530;-79
2022/03/09 01:21:47;;;;;;;;;;;;;;;21.87;35.87;95009.44;1989414;29;1667;-78
2022/03/09 01:22:48;;;;;;;;;;;;;;;21.85;36.12;95008.00;1988781;29;1562;-78
2022/03/09 01:23:51;;;;;;;;;;;;;;;21.81;35.87;95010.28;1989467;29;1498;-78
2022/03/09 01:24:53;;;;;;;;;;;;;;;21.81;36.01;95012.97;1989370;29;1117;-80
2022/03/09 01:25:54;;;;;;;;;;;;;;;21.86;35.85;95009.63;1989020;29;1629;-80
2022/03/09 01:26:56;;;;;;;;;;;;;;;21.84;35.99;95007.19;1989589;29;1664;-79
2022/03/09 01:27:58;;;;;;;;;;;;;;;21.85;36.00;95014.16;1985968;29;1617;-79
2022/03/09 01:28:59;;;;;;;;;;;;;;;21.88;36.19;95007.59;1996601;29;1996;-79
2022/03/09 01:30:02;;;;;;;;;;;;;;;21.89;35.81;95012.72;1996247;29;1572;-79
2022/03/09 01:31:04;;;;;;;;;;;;;;;21.88;35.95;95004.91;1981760;30;1145;-78
2022/03/09 01:32:06;;;;;;;;;;;;;;;21.88;36.05;95011.06;1989311;29;1600;-79
2022/03/09 01:33:09;;;;;;;;;;;;;;;21.93;35.93;95007.75;1996705;29;994;-79
2022/03/09 01:34:10;;;;;;;;;;;;;;;21.93;35.65;95010.44;1981989;29;1126;-79
2022/03/09 01:35:12;;;;;;;;;;;;;;;21.93;35.89;95005.09;1989953;29;1587;-79
2022/03/09 01:36:14;;;;;;;;;;;;;;;21.90;35.83;95009.00;1989231;29;1517;-78
2022/03/09 01:37:21;;;;;;;;;;;;;;;21.90;35.80;95005.53;1990268;29;1599;-79
2022/03/09 01:38:25;;;;;;;;;;;;;;;21.90;36.13;95002.84;1985093;29;1459;-79
2022/03/09 01:39:27;;;;;;;;;;;;;;;21.91;35.93;95009.81;1996559;29;1124;-79
2022/03/09 01:40:29;;;;;;;;;;;;;;;21.91;35.84;95009.81;1996306;29;1516;-79
2022/03/09 01:41:30;;;;;;;;;;;;;;;21.88;35.82;95004.91;1989022;29;1600;-79
2022/03/09 01:42:32;;;;;;;;;;;;;;;21.90;35.82;95008.19;1989657;29;1549;-79
2022/03/09 01:43:34;;;;;;;;;;;;;;;21.88;36.01;95004.91;1996773;29;986;-78
2022/03/09 01:44:35;;;;;;;;;;;;;;;21.90;35.96;95008.19;1996841;29;1644;-79
2022/03/09 01:45:37;;;;;;;;;;;;;;;21.91;36.09;95015.16;1989050;29;1490;-79
2022/03/09 01:46:39;;;;;;;;;;;;;;;21.94;36.06;95014.72;1988889;29;1556;-79
2022/03/09 01:47:41;;;;;;;;;;;;;;;21.93;36.22;95007.75;1989182;29;1562;-79
2022/03/09 01:48:43;;;;;;;;;;;;;;;21.91;36.07;95015.97;1988895;29;1911;-78
2022/03/09 01:49:44;;;;;;;;;;;;;;;21.91;36.26;95013.31;1985732;29;1529;-79
2022/03/09 01:50:47;;;;;;;;;;;;;;;21.96;35.86;95015.34;2004123;29;1492;-79
2022/03/09 01:51:50;;;;;;;;;;;;;;;21.97;36.09;95014.31;1996233;29;1664;-79
2022/03/09 01:52:52;;;;;;;;;;;;;;;21.96;35.96;95015.34;1989447;29;1502;-79
2022/03/09 01:53:53;;;;;;;;;;;;;;;21.95;35.93;95016.41;1994978;29;1773;-79
2022/03/09 01:54:55;;;;;;;;;;;;;;;21.95;35.95;95014.53;1988603;29;1629;-79
2022/03/09 01:55:57;;;;;;;;;;;;;;;21.91;36.05;95009.81;1988973;29;1554;-79
2022/03/09 01:56:59;;;;;;;;;;;;;;;21.93;36.19;95015.78;1989343;29;955;-79
2022/03/09 01:58:01;;;;;;;;;;;;;;;21.95;35.90;95016.41;1989068;29;1599;-80
2022/03/09 01:59:03;;;;;;;;;;;;;;;21.96;35.93;95012.69;1989146;29;1691;-79
2022/03/09 02:00:06;;;;;;;;;;;;;;;21.95;35.97;95016.41;1988407;29;1601;-79
2022/03/09 02:01:07;;;;;;;;;;;;;;;21.93;35.95;95013.09;1986615;29;1565;-79
2022/03/09 02:02:09;;;;;;;;;;;;;;;21.93;36.03;95013.91;1989942;29;1537;-79
2022/03/09 02:03:11;;;;;;;;;;;;;;;21.93;35.96;95011.25;1989119;29;1505;-79
2022/03/09 02:04:13;;;;;;;;;;;;;;;21.93;36.00;95008.59;1989410;29;1637;-80
2022/03/09 02:05:17;;;;;;;;;;;;;;;21.98;36.07;95011.44;1988579;29;1581;-79
2022/03/09 02:06:19;;;;;;;;;;;;;;;21.97;35.92;95015.16;1997039;29;1557;-81
2022/03/09 02:09:41;;;;;;;;;;;;;;;22.08;35.84;95015.47;1996284;29;1209;-80
2022/03/09 02:10:06;;;;;;;;;;;;;;;22.01;36.19;95010.19;1997033;29;1575;-80
2022/03/09 02:11:08;;;;;;;;;;;;;;;21.99;36.08;95012.25;1989228;29;1554;-82
2022/03/09 02:12:11;;;;;;;;;;;;;;;22.00;36.08;95013.91;1986453;29;1555;-81
2022/03/09 02:13:13;;;;;;;;;;;;;;;22.04;36.07;95009.75;1982029;29;1122;-81
2022/03/09 02:14:27;;;;;;;;;;;;;;;22.01;36.26;95011.00;1982259;29;1517;-81
2022/03/09 02:15:29;;;;;;;;;;;;;;;22.01;36.24;95010.19;1998152;29;1544;-80
2022/03/09 02:16:31;;;;;;;;;;;;;;;22.00;36.20;95005.91;1996648;29;1558;-81
2022/03/09 02:17:35;;;;;;;;;;;;;;;22.04;36.15;95004.41;1989504;29;1391;-81
2022/03/09 02:18:37;;;;;;;;;;;;;;;21.99;36.35;95007.72;1997745;29;1497;-81
2022/03/09 02:19:39;;;;;;;;;;;;;;;22.01;36.44;94999.50;1997105;29;1118;-81
2022/03/09 02:20:42;;;;;;;;;;;;;;;22.01;36.41;95005.66;1988573;29;1502;-80
2022/03/09 02:21:44;;;;;;;;;;;;;;;21.99;36.49;95007.72;1989607;29;834;-81
2022/03/09 02:22:46;;;;;;;;;;;;;;;21.99;36.41;95012.25;1978304;29;1706;-80
2022/03/09 02:23:47;;;;;;;;;;;;;;;22.02;36.22;95007.28;1982582;29;1656;-81
2022/03/09 02:24:50;;;;;;;;;;;;;;;22.02;36.31;95007.28;1989078;29;1018;-81
2022/03/09 02:25:51;;;;;;;;;;;;;;;22.02;36.48;95003.81;1981649;29;1522;-80
2022/03/09 02:26:53;;;;;;;;;;;;;;;21.98;36.53;95005.28;1982778;29;1043;-81
2022/03/09 02:27:55;;;;;;;;;;;;;;;21.98;36.38;95011.44;1989284;29;1119;-82
2022/03/09 02:28:56;;;;;;;;;;;;;;;21.97;36.51;95003.63;1990347;29;1963;-82
2022/03/09 02:29:58;;;;;;;;;;;;;;;21.98;36.63;95003.41;1988788;29;1570;-82
2022/03/09 02:30:59;;;;;;;;;;;;;;;21.98;36.40;95010.63;1989087;29;1505;-81
2022/03/09 02:32:02;;;;;;;;;;;;;;;22.04;36.53;95011.63;1989478;29;1593;-82
2022/03/09 02:33:04;;;;;;;;;;;;;;;22.08;36.27;95010.97;1981852;29;1502;-82
2022/03/09 02:34:05;;;;;;;;;;;;;;;22.06;36.61;95007.69;1979661;29;1647;-80
2022/03/09 02:35:08;;;;;;;;;;;;;;;22.05;36.69;95005.22;1989135;29;1522;-79
2022/03/09 02:36:09;;;;;;;;;;;;;;;22.01;36.34;94999.50;1988746;29;1576;-80
2022/03/09 02:37:13;;;;;;;;;;;;;;;22.05;36.38;95010.56;1990348;29;1261;-79
2022/03/09 02:38:15;;;;;;;;;;;;;;;22.05;36.50;95005.22;1988545;29;1596;-79
2022/03/09 02:39:16;;;;;;;;;;;;;;;22.08;36.37;95010.13;1988717;29;1667;-80
2022/03/09 02:40:18;;;;;;;;;;;;;;;22.06;36.34;95004.19;1988497;29;1667;-81
2022/03/09 02:41:20;;;;;;;;;;;;;;;22.05;36.52;95006.03;1996358;29;1563;-79
2022/03/09 02:42:21;;;;;;;;;;;;;;;22.09;36.48;95007.28;1988836;29;1499;-79
2022/03/09 02:43:23;;;;;;;;;;;;;;;22.12;36.45;95009.50;1988686;29;1671;-80
2022/03/09 02:44:25;;;;;;;;;;;;;;;22.13;36.49;95007.66;1978384;29;1510;-79
2022/03/09 02:45:27;;;;;;;;;;;;;;;22.08;36.53;95002.94;1981023;29;1601;-79
2022/03/09 02:46:28;;;;;;;;;;;;;;;22.07;36.54;95003.97;1988471;29;1560;-79
2022/03/09 02:47:30;;;;;;;;;;;;;;;22.04;36.35;95009.75;1981727;29;1501;-79
2022/03/09 02:48:32;;;;;;;;;;;;;;;22.08;36.61;95005.59;1981334;29;1547;-79
2022/03/09 02:49:34;;;;;;;;;;;;;;;22.09;36.42;95017.13;1989033;29;1915;-79
2022/03/09 02:50:35;;;;;;;;;;;;;;;22.10;36.52;95005.41;1988685;29;1502;-79
2022/03/09 02:51:37;;;;;;;;;;;;;;;22.11;36.40;95002.50;1988525;29;1498;-79
2022/03/09 02:52:40;;;;;;;;;;;;;;;22.17;36.26;95008.84;1988759;29;1534;-79
2022/03/09 02:53:41;;;;;;;;;;;;;;;22.13;36.47;95003.13;1988446;29;1593;-80
2022/03/09 02:54:43;;;;;;;;;;;;;;;22.12;36.26;95001.50;1988901;29;1677;-80
2022/03/09 02:55:45;;;;;;;;;;;;;;;22.13;36.45;95000.44;1985044;29;1654;-79
2022/03/09 02:56:46;;;;;;;;;;;;;;;22.11;36.78;94999.84;1989006;29;1685;-79
2022/03/09 02:57:48;;;;;;;;;;;;;;;22.10;36.77;95005.41;1988795;29;1189;-79
2022/03/09 02:58:49;;;;;;;;;;;;;;;22.09;36.54;95003.78;1988733;29;1525;-79
2022/03/09 02:59:51;;;;;;;;;;;;;;;22.11;36.29;95005.19;1988680;29;1617;-78
2022/03/09 03:00:53;;;;;;;;;;;;;;;22.08;36.61;95000.28;1988692;29;1078;-78
2022/03/09 03:01:54;;;;;;;;;;;;;;;22.04;36.70;95006.28;1988218;29;1609;-80
2022/03/09 03:02:56;;;;;;;;;;;;;;;22.09;36.54;95001.94;1996572;29;1048;-78
2022/03/09 03:03:58;;;;;;;;;;;;;;;22.09;36.54;95003.78;2003409;29;1532;-82
2022/03/09 03:05:01;;;;;;;;;;;;;;;22.09;36.73;95006.47;1989619;29;1542;-84
2022/03/09 03:06:02;;;;;;;;;;;;;;;22.13;36.37;95003.13;1996771;29;1038;-82
2022/03/09 03:07:04;;;;;;;;;;;;;;;22.11;36.49;95005.19;1992537;29;1485;-82
2022/03/09 03:08:06;;;;;;;;;;;;;;;22.19;36.47;95009.50;1990045;29;1605;-82
2022/03/09 03:09:08;;;;;;;;;;;;;;;22.18;36.51;95007.84;1981190;29;1506;-81
2022/03/09 03:10:09;;;;;;;;;;;;;;;22.14;36.72;95007.44;1981723;29;1904;-82
2022/03/09 03:11:11;;;;;;;;;;;;;;;22.11;36.74;95004.38;1996543;29;1577;-82
2022/03/09 03:12:13;;;;;;;;;;;;;;;22.11;36.47;94997.16;1995871;29;1584;-82
2022/03/09 03:13:14;;;;;;;;;;;;;;;22.10;36.44;95005.41;1989941;29;1018;-82
2022/03/09 03:14:16;;;;;;;;;;;;;;;22.11;36.53;95007.84;1997023;29;1604;-83
2022/03/09 03:15:20;;;;;;;;;;;;;;;22.15;36.57;95010.94;1989281;29;1379;-83
2022/03/09 03:16:22;;;;;;;;;;;;;;;22.14;36.44;95007.44;1988692;29;1149;-82
2022/03/09 03:17:23;;;;;;;;;;;;;;;22.16;36.45;95007.22;1978720;29;1038;-82
2022/03/09 03:18:25;;;;;;;;;;;;;;;22.17;36.35;95001.69;1982172;29;1459;-82
2022/03/09 03:19:27;;;;;;;;;;;;;;;22.13;36.48;95004.97;1989059;29;1113;-82
2022/03/09 03:20:29;;;;;;;;;;;;;;;22.13;36.63;95013.81;1988725;29;1653;-82
2022/03/09 03:21:31;;;;;;;;;;;;;;;22.12;36.59;95009.50;1988117;29;1652;-81
2022/03/09 03:22:32;;;;;;;;;;;;;;;22.10;36.57;95008.09;1983487;29;1511;-83
2022/03/09 03:23:35;;;;;;;;;;;;;;;22.08;36.72;95012.81;1989425;29;1146;-82
2022/03/09 03:24:36;;;;;;;;;;;;;;;22.11;36.68;95017.72;1988850;29;1509;-82
2022/03/09 03:25:38;;;;;;;;;;;;;;;22.08;36.59;95018.97;1988831;29;1677;-84
2022/03/09 03:26:40;;;;;;;;;;;;;;;22.08;36.52;95010.97;1989361;29;1490;-82
2022/03/09 03:27:41;;;;;;;;;;;;;;;22.07;36.67;95013.84;1981844;29;1093;-82
2022/03/09 03:28:43;;;;;;;;;;;;;;;22.12;36.54;95012.19;1979530;29;1054;-81
2022/03/09 03:29:45;;;;;;;;;;;;;;;22.17;36.67;95015.06;1988574;29;1912;-83
2022/03/09 03:30:46;;;;;;;;;;;;;;;22.19;36.57;95015.66;1981694;29;1690;-82
2022/03/09 03:31:48;;;;;;;;;;;;;;;22.17;36.40;95014.19;1982509;29;1665;-82
2022/03/09 03:32:53;;;;;;;;;;;;;;;22.16;36.43;95013.38;1988900;29;1577;-82
2022/03/09 03:33:55;;;;;;;;;;;;;;;22.18;36.53;95016.69;1982542;29;1679;-80
2022/03/09 03:34:57;;;;;;;;;;;;;;;22.17;36.37;95015.06;1988509;29;1551;-79
2022/03/09 03:35:58;;;;;;;;;;;;;;;22.15;36.63;95013.59;1988689;29;1598;-77
2022/03/09 03:37:01;;;;;;;;;;;;;;;22.14;36.76;95020.81;1988285;29;1514;-79
2022/03/09 03:38:03;;;;;;;;;;;;;;;22.17;36.82;95020.41;1988518;29;1638;-76
2022/03/09 03:39:04;;;;;;;;;;;;;;;22.12;36.61;95019.38;1988863;29;1141;-79
2022/03/09 03:40:06;;;;;;;;;;;;;;;22.19;36.64;95020.19;1992330;29;1651;-80
2022/03/09 03:41:08;;;;;;;;;;;;;;;22.18;36.63;95014.03;1995770;29;1533;-81
2022/03/09 03:42:11;;;;;;;;;;;;;;;22.20;36.38;95021.84;1988929;29;1502;-80
2022/03/09 03:43:13;;;;;;;;;;;;;;;22.17;36.55;95015.06;1995662;29;1646;-80
2022/03/09 03:44:14;;;;;;;;;;;;;;;22.20;36.45;95014.63;1988595;29;998;-80
2022/03/09 03:45:16;;;;;;;;;;;;;;;22.20;36.27;95013.81;1987778;29;1514;-78
2022/03/09 03:46:17;;;;;;;;;;;;;;;22.17;36.31;95015.06;1988602;29;1494;-79
2022/03/09 03:47:19;;;;;;;;;;;;;;;22.15;36.43;95022.44;1988476;29;998;-80
2022/03/09 03:48:21;;;;;;;;;;;;;;;22.10;36.55;95016.91;1993515;29;1415;-80
2022/03/09 03:49:23;;;;;;;;;;;;;;;22.18;36.49;95015.88;1989482;29;1699;-81
2022/03/09 03:50:25;;;;;;;;;;;;;;;22.12;36.68;95017.53;1985633;29;2002;-81
2022/03/09 03:51:26;;;;;;;;;;;;;;;22.15;36.62;95014.41;1989970;29;1223;-81
2022/03/09 03:52:30;;;;;;;;;;;;;;;22.12;36.58;95011.38;1988563;29;1544;-81
2022/03/09 03:53:32;;;;;;;;;;;;;;;22.11;36.62;95020.41;1988850;29;1294;-80
2022/03/09 03:54:34;;;;;;;;;;;;;;;22.09;36.80;95017.97;1989618;29;1552;-80
2022/03/09 03:55:35;;;;;;;;;;;;;;;22.05;36.61;95015.91;1995523;29;1492;-80
2022/03/09 03:56:37;;;;;;;;;;;;;;;22.05;36.76;95015.91;1994617;29;1286;-81
2022/03/09 03:57:38;;;;;;;;;;;;;;;22.04;36.86;95015.09;1996739;29;1073;-81
2022/03/09 03:58:40;;;;;;;;;;;;;;;22.00;36.81;95024.59;1988989;29;1308;-82
2022/03/09 03:59:42;;;;;;;;;;;;;;;22.01;37.11;95021.69;1997523;29;1572;-81
2022/03/09 04:00:43;;;;;;;;;;;;;;;22.04;36.92;95023.13;1996109;29;1624;-81
2022/03/09 04:01:45;;;;;;;;;;;;;;;22.04;36.99;95023.13;1986096;29;1506;-82
2022/03/09 04:02:47;;;;;;;;;;;;;;;19.47;25.59;95018.47;1987856;29;1387;-77
2022/03/09 04:03:49;;;;;;;;;;;;;;;16.21;26.60;95020.19;1988215;29;1530;-79
2022/03/09 04:04:51;;;;;;;;;;;;;;;14.35;28.11;95021.63;1988365;29;1037;-78
2022/03/09 04:05:53;;;;;;;;;;;;;;;13.33;29.36;95023.63;1995377;29;1607;-79
2022/03/09 04:06:54;;;;;;;;;;;;;;;12.34;29.52;95019.63;1995483;29;1563;-80
2022/03/09 04:07:57;;;;;;;;;;;;;;;11.53;29.51;95029.44;1987778;29;1526;-78
2022/03/09 04:08:59;;;;;;;;;;;;;;;11.19;31.01;95028.25;1988359;29;1063;-78
2022/03/09 04:10:00;;;;;;;;;;;;;;;10.67;30.93;95024.44;1988463;29;1911;-79
2022/03/09 04:11:02;;;;;;;;;;;;;;;10.69;31.33;95028.59;1987504;29;1678;-78
2022/03/09 04:12:04;;;;;;;;;;;;;;;10.69;30.83;95033.03;1988300;29;1619;-78
2022/03/09 04:13:06;;;;;;;;;;;;;;;10.31;31.25;95019.06;1984357;29;1706;-78
2022/03/09 04:14:07;;;;;;;;;;;;;;;10.32;31.54;95031.19;1988114;29;1576;-79
2022/03/09 04:15:09;;;;;;;;;;;;;;;10.25;31.23;95030.91;1988403;29;1568;-79
2022/03/09 04:16:11;;;;;;;;;;;;;;;10.22;31.02;95035.59;1979980;29;1565;-80
2022/03/09 04:17:13;;;;;;;;;;;;;;;10.24;31.16;95025.78;1980694;29;1486;-79
2022/03/09 04:18:14;;;;;;;;;;;;;;;9.90;31.26;95026.22;1988737;29;1538;-78
2022/03/09 04:19:16;;;;;;;;;;;;;;;9.97;31.18;95032.59;1994706;29;1466;-79
2022/03/09 04:20:18;;;;;;;;;;;;;;;10.10;30.84;95025.28;1989181;29;1560;-78
2022/03/09 04:21:20;;;;;;;;;;;;;;;9.69;31.09;95032.44;1987307;29;1485;-79
2022/03/09 04:22:22;;;;;;;;;;;;;;;9.26;31.48;95021.50;1988049;29;1315;-79
2022/03/09 04:23:24;;;;;;;;;;;;;;;9.48;31.90;95028.28;2000403;29;1587;-79
2022/03/09 04:24:25;;;;;;;;;;;;;;;9.65;31.60;95033.69;1993862;29;1627;-79
2022/03/09 04:25:29;;;;;;;;;;;;;;;9.53;31.24;95026.91;1988054;29;1569;-79
2022/03/09 04:26:31;;;;;;;;;;;;;;;9.57;31.36;95030.94;1980830;29;1521;-80
2022/03/09 04:27:33;;;;;;;;;;;;;;;9.31;31.67;95027.19;1987563;29;1545;-79
2022/03/09 04:28:34;;;;;;;;;;;;;;;9.09;31.77;95034.28;1989227;29;1513;-79
2022/03/09 04:29:36;;;;;;;;;;;;;;;9.02;31.71;95030.53;1987090;29;1404;-79
2022/03/09 04:30:41;;;;;;;;;;;;;;;8.78;32.19;95028.25;1988549;29;1903;-79
2022/03/09 04:31:43;;;;;;;;;;;;;;;8.69;32.22;95032.50;1987434;29;1553;-79
2022/03/09 04:32:44;;;;;;;;;;;;;;;8.54;32.49;95033.81;1987715;29;1537;-79
2022/03/09 04:33:49;;;;;;;;;;;;;;;8.55;32.17;95038.06;1988785;29;1559;-79
2022/03/09 04:34:51;;;;;;;;;;;;;;;8.45;32.47;95034.56;1984377;29;1660;-78
2022/03/09 04:35:53;;;;;;;;;;;;;;;8.58;32.71;95040.41;1988116;29;1557;-79
2022/03/09 04:36:55;;;;;;;;;;;;;;;8.57;32.63;95038.78;1995202;29;1501;-78
2022/03/09 04:37:56;;;;;;;;;;;;;;;8.59;32.46;95030.78;1994769;29;1619;-79
2022/03/09 04:38:58;;;;;;;;;;;;;;;8.51;32.60;95034.91;1988620;29;1731;-79
2022/03/09 04:40:01;;;;;;;;;;;;;;;8.48;32.51;95031.69;1995133;29;1604;-79
2022/03/09 04:41:03;;;;;;;;;;;;;;;8.47;32.47;95032.66;1995992;29;1485;-79
2022/03/09 04:42:05;;;;;;;;;;;;;;;8.58;32.36;95035.19;1987444;29;1474;-78
2022/03/09 04:43:06;;;;;;;;;;;;;;;8.94;32.28;95038.25;1980062;29;1710;-80
2022/03/09 04:44:09;;;;;;;;;;;;;;;10.04;31.96;95031.03;1981046;29;1058;-78
2022/03/09 04:45:11;;;;;;;;;;;;;;;11.45;30.67;95028.34;1986975;29;1659;-78
2022/03/09 04:46:18;;;;;;;;;;;;;;;12.68;29.34;95032.03;1996284;29;1121;-78
2022/03/09 04:47:20;;;;;;;;;;;;;;;13.71;28.23;95030.13;1988733;29;1490;-77
2022/03/09 04:48:21;;;;;;;;;;;;;;;14.50;27.73;95029.69;1988890;29;1632;-77
2022/03/09 04:49:23;;;;;;;;;;;;;;;15.11;27.23;95022.94;1982831;29;1124;-79
2022/03/09 04:50:27;;;;;;;;;;;;;;;15.17;26.33;95034.66;1981843;29;2001;-78
2022/03/09 04:51:29;;;;;;;;;;;;;;;15.66;27.61;95029.16;1997572;29;1504;-80
2022/03/09 04:52:31;;;;;;;;;;;;;;;16.28;28.84;95028.25;1995798;29;1501;-80
2022/03/09 04:53:32;;;;;;;;;;;;;;;16.77;28.46;95020.72;1988783;29;1654;-76
2022/03/09 04:54:35;;;;;;;;;;;;;;;17.15;28.73;95022.47;1981726;29;1232;-77
2022/03/09 04:55:37;;;;;;;;;;;;;;;17.39;28.77;95034.59;1985997;29;1502;-79
2022/03/09 04:56:38;;;;;;;;;;;;;;;17.46;28.64;95027.56;1984390;29;1506;-79
2022/03/09 04:57:45;;;;;;;;;;;;;;;17.44;29.05;95026.91;1982881;29;1433;-79
2022/03/09 04:58:47;;;;;;;;;;;;;;;17.42;29.17;95029.78;1990871;29;1833;-80
2022/03/09 04:59:49;;;;;;;;;;;;;;;17.45;29.28;95024.09;1988152;29;1580;-77
2022/03/09 05:00:51;;;;;;;;;;;;;;;17.62;29.11;95024.69;1995522;29;1684;-80
2022/03/09 05:01:52;;;;;;;;;;;;;;;17.73;29.13;95032.19;2004065;29;1386;-80
2022/03/09 05:02:54;;;;;;;;;;;;;;;17.76;29.18;95025.69;1986947;29;1677;-80
2022/03/09 05:03:56;;;;;;;;;;;;;;;17.77;29.22;95022.81;1987781;29;1109;-80
2022/03/09 05:04:58;;;;;;;;;;;;;;;17.79;29.39;95027.16;1980921;29;1708;-79
2022/03/09 05:06:02;;;;;;;;;;;;;;;18.06;28.82;95029.06;1980440;29;1652;-78
2022/03/09 05:07:06;;;;;;;;;;;;;;;18.26;28.74;95020.47;1989496;29;1560;-80
2022/03/09 05:08:11;;;;;;;;;;;;;;;18.39;28.65;95026.75;1984143;29;1386;-79
2022/03/09 05:09:12;;;;;;;;;;;;;;;18.52;28.78;95027.84;1988456;29;1320;-80
2022/03/09 05:10:14;;;;;;;;;;;;;;;17.80;25.93;95034.13;1986317;29;1656;-77
2022/03/09 05:11:16;;;;;;;;;;;;;;;16.36;28.75;95039.63;1987140;29;1915;-79
2022/03/09 05:12:18;;;;;;;;;;;;;;;15.77;31.05;95039.38;1988038;29;1720;-77
2022/03/09 05:13:22;;;;;;;;;;;;;;;15.43;31.77;95042.34;1987428;29;1526;-78
2022/03/09 05:14:24;;;;;;;;;;;;;;;15.18;32.47;95038.97;1991804;29;1635;-79
2022/03/09 05:15:26;;;;;;;;;;;;;;;15.83;31.65;95043.97;1994310;29;1521;-80
2022/03/09 05:16:27;;;;;;;;;;;;;;;16.31;31.42;95039.31;1994931;29;1382;-80
2022/03/09 05:17:29;;;;;;;;;;;;;;;16.73;30.86;95045.88;1996052;29;1705;-79
2022/03/09 05:18:32;;;;;;;;;;;;;;;17.09;30.74;95048.69;1991281;29;1529;-79
2022/03/09 05:19:34;;;;;;;;;;;;;;;17.36;30.24;95053.53;1988384;29;1407;-79
2022/03/09 05:20:35;;;;;;;;;;;;;;;17.56;29.80;95049.31;1988173;29;1561;-79
2022/03/09 05:21:37;;;;;;;;;;;;;;;17.73;29.59;95048.09;1996253;29;1549;-80
2022/03/09 05:22:39;;;;;;;;;;;;;;;17.89;29.51;95047.06;1996800;29;1561;-79
2022/03/09 05:23:40;;;;;;;;;;;;;;;18.03;29.41;95056.00;1989004;29;1566;-79
2022/03/09 05:24:42;;;;;;;;;;;;;;;18.14;29.21;95052.84;1990557;29;1106;-79
2022/03/09 05:25:44;;;;;;;;;;;;;;;18.23;29.14;95063.34;1995502;29;1579;-79
2022/03/09 05:26:48;;;;;;;;;;;;;;;18.27;29.11;95054.81;1988069;29;1091;-80
2022/03/09 05:27:50;;;;;;;;;;;;;;;18.33;29.04;95054.06;1990116;29;1042;-81
2022/03/09 05:28:51;;;;;;;;;;;;;;;18.37;28.95;95049.19;1995489;29;1575;-79